sensor_id;sensor_type;location;lat;lon;timestamp;temperature;humidity
68235;DHT22;55052;52.056;5.296;2023-07-31T00:01:40;17.20;90.20
68235;DHT22;55052;52.056;5.296;2023-07-31T00:04:07;17.30;90.30
68235;DHT22;55052;52.056;5.296;2023-07-31T00:06:34;17.30;90.30
68235;DHT22;55052;52.056;5.296;2023-07-31T00:09:01;17.30;90.30
68235;DHT22;55052;52.056;5.296;2023-07-31T00:11:28;17.30;90.40
68235;DHT22;55052;52.056;5.296;2023-07-31T00:13:54;17.30;90.50
68235;DHT22;55052;52.056;5.296;2023-07-31T00:16:21;17.30;90.50
68235;DHT22;55052;52.056;5.296;2023-07-31T00:18:48;17.30;90.60
68235;DHT22;55052;52.056;5.296;2023-07-31T00:21:15;17.40;90.70
68235;DHT22;55052;52.056;5.296;2023-07-31T00:23:42;17.40;90.80
68235;DHT22;55052;52.056;5.296;2023-07-31T00:26:08;17.40;91.00
68235;DHT22;55052;52.056;5.296;2023-07-31T00:28:35;17.50;91.10
68235;DHT22;55052;52.056;5.296;2023-07-31T00:31:02;17.50;91.30
68235;DHT22;55052;52.056;5.296;2023-07-31T00:33:31;17.60;91.90
68235;DHT22;55052;52.056;5.296;2023-07-31T00:35:58;17.70;91.70
68235;DHT22;55052;52.056;5.296;2023-07-31T00:38:25;17.80;91.90
68235;DHT22;55052;52.056;5.296;2023-07-31T00:40:51;17.80;92.00
68235;DHT22;55052;52.056;5.296;2023-07-31T00:43:18;17.90;92.10
68235;DHT22;55052;52.056;5.296;2023-07-31T00:45:45;18.00;92.20
68235;DHT22;55052;52.056;5.296;2023-07-31T00:48:13;18.00;92.20
68235;DHT22;55052;52.056;5.296;2023-07-31T00:50:40;18.10;92.20
68235;DHT22;55052;52.056;5.296;2023-07-31T00:53:07;18.10;92.20
68235;DHT22;55052;52.056;5.296;2023-07-31T00:55:34;18.20;92.20
68235;DHT22;55052;52.056;5.296;2023-07-31T00:58:01;18.20;92.20
68235;DHT22;55052;52.056;5.296;2023-07-31T01:00:28;18.20;92.20
68235;DHT22;55052;52.056;5.296;2023-07-31T01:02:55;18.30;92.20
68235;DHT22;55052;52.056;5.296;2023-07-31T01:05:33;18.30;92.20
68235;DHT22;55052;52.056;5.296;2023-07-31T01:08:04;18.30;92.10
68235;DHT22;55052;52.056;5.296;2023-07-31T01:10:46;18.30;92.10
68235;DHT22;55052;52.056;5.296;2023-07-31T01:13:15;18.30;92.00
68235;DHT22;55052;52.056;5.296;2023-07-31T01:15:42;18.30;92.00
68235;DHT22;55052;52.056;5.296;2023-07-31T01:18:09;18.40;92.00
68235;DHT22;55052;52.056;5.296;2023-07-31T01:20:37;18.40;92.00
68235;DHT22;55052;52.056;5.296;2023-07-31T01:26:18;18.40;92.00
68235;DHT22;55052;52.056;5.296;2023-07-31T01:31:29;18.40;92.00
68235;DHT22;55052;52.056;5.296;2023-07-31T01:34:00;18.40;92.00
68235;DHT22;55052;52.056;5.296;2023-07-31T01:36:28;18.40;92.00
68235;DHT22;55052;52.056;5.296;2023-07-31T01:39:00;18.40;92.00
68235;DHT22;55052;52.056;5.296;2023-07-31T01:41:27;18.40;92.00
68235;DHT22;55052;52.056;5.296;2023-07-31T01:43:54;18.40;92.00
68235;DHT22;55052;52.056;5.296;2023-07-31T01:46:21;18.40;92.00
68235;DHT22;55052;52.056;5.296;2023-07-31T01:48:48;18.40;92.00
68235;DHT22;55052;52.056;5.296;2023-07-31T01:51:14;18.40;92.00
68235;DHT22;55052;52.056;5.296;2023-07-31T01:53:41;18.40;92.00
68235;DHT22;55052;52.056;5.296;2023-07-31T01:56:08;18.40;92.00
68235;DHT22;55052;52.056;5.296;2023-07-31T01:58:34;18.40;92.00
68235;DHT22;55052;52.056;5.296;2023-07-31T02:01:01;18.40;92.00
68235;DHT22;55052;52.056;5.296;2023-07-31T02:03:28;18.40;92.00
68235;DHT22;55052;52.056;5.296;2023-07-31T02:05:55;18.40;91.90
68235;DHT22;55052;52.056;5.296;2023-07-31T02:08:23;18.40;91.90
68235;DHT22;55052;52.056;5.296;2023-07-31T02:10:51;18.40;91.90
68235;DHT22;55052;52.056;5.296;2023-07-31T02:13:18;18.30;91.90
68235;DHT22;55052;52.056;5.296;2023-07-31T02:15:45;18.30;91.90
68235;DHT22;55052;52.056;5.296;2023-07-31T02:18:12;18.40;91.90
68235;DHT22;55052;52.056;5.296;2023-07-31T02:20:39;18.40;91.90
68235;DHT22;55052;52.056;5.296;2023-07-31T02:23:05;18.30;91.80
68235;DHT22;55052;52.056;5.296;2023-07-31T02:25:32;18.30;91.80
68235;DHT22;55052;52.056;5.296;2023-07-31T02:27:59;18.30;91.80
68235;DHT22;55052;52.056;5.296;2023-07-31T02:30:26;18.30;91.80
68235;DHT22;55052;52.056;5.296;2023-07-31T02:32:53;18.30;91.90
68235;DHT22;55052;52.056;5.296;2023-07-31T02:35:20;18.30;91.80
68235;DHT22;55052;52.056;5.296;2023-07-31T02:37:47;18.30;91.80
68235;DHT22;55052;52.056;5.296;2023-07-31T02:40:13;18.30;91.80
68235;DHT22;55052;52.056;5.296;2023-07-31T02:42:40;18.30;91.80
68235;DHT22;55052;52.056;5.296;2023-07-31T02:45:07;18.30;91.80
68235;DHT22;55052;52.056;5.296;2023-07-31T02:47:35;18.30;91.80
68235;DHT22;55052;52.056;5.296;2023-07-31T02:50:03;18.30;91.80
68235;DHT22;55052;52.056;5.296;2023-07-31T02:52:30;18.30;91.80
68235;DHT22;55052;52.056;5.296;2023-07-31T02:54:57;18.30;91.80
68235;DHT22;55052;52.056;5.296;2023-07-31T02:57:24;18.30;91.80
68235;DHT22;55052;52.056;5.296;2023-07-31T02:59:51;18.30;91.70
68235;DHT22;55052;52.056;5.296;2023-07-31T03:02:18;18.30;91.70
68235;DHT22;55052;52.056;5.296;2023-07-31T03:04:45;18.30;91.70
68235;DHT22;55052;52.056;5.296;2023-07-31T03:07:12;18.30;91.70
68235;DHT22;55052;52.056;5.296;2023-07-31T03:09:39;18.20;91.70
68235;DHT22;55052;52.056;5.296;2023-07-31T03:12:06;18.20;91.70
68235;DHT22;55052;52.056;5.296;2023-07-31T03:14:33;18.20;91.70
68235;DHT22;55052;52.056;5.296;2023-07-31T03:17:00;18.20;91.70
68235;DHT22;55052;52.056;5.296;2023-07-31T03:19:26;18.20;92.00
68235;DHT22;55052;52.056;5.296;2023-07-31T03:21:53;18.20;91.60
68235;DHT22;55052;52.056;5.296;2023-07-31T03:24:20;18.20;91.60
68235;DHT22;55052;52.056;5.296;2023-07-31T03:26:47;18.20;91.60
68235;DHT22;55052;52.056;5.296;2023-07-31T03:29:13;18.10;91.60
68235;DHT22;55052;52.056;5.296;2023-07-31T03:31:40;18.10;91.50
68235;DHT22;55052;52.056;5.296;2023-07-31T03:34:07;18.10;91.50
68235;DHT22;55052;52.056;5.296;2023-07-31T03:36:34;18.10;91.50
68235;DHT22;55052;52.056;5.296;2023-07-31T03:39:01;18.10;91.80
68235;DHT22;55052;52.056;5.296;2023-07-31T03:41:27;18.10;91.50
68235;DHT22;55052;52.056;5.296;2023-07-31T03:43:54;18.10;91.40
68235;DHT22;55052;52.056;5.296;2023-07-31T03:46:23;18.10;91.40
68235;DHT22;55052;52.056;5.296;2023-07-31T03:48:51;18.10;91.40
68235;DHT22;55052;52.056;5.296;2023-07-31T03:51:17;18.10;91.30
68235;DHT22;55052;52.056;5.296;2023-07-31T03:53:45;18.10;91.30
68235;DHT22;55052;52.056;5.296;2023-07-31T03:56:11;18.00;91.30
68235;DHT22;55052;52.056;5.296;2023-07-31T03:58:38;18.00;91.20
68235;DHT22;55052;52.056;5.296;2023-07-31T04:01:06;18.00;91.20
68235;DHT22;55052;52.056;5.296;2023-07-31T04:03:33;18.00;91.10
68235;DHT22;55052;52.056;5.296;2023-07-31T04:05:59;18.00;91.10
68235;DHT22;55052;52.056;5.296;2023-07-31T04:08:26;18.00;91.00
68235;DHT22;55052;52.056;5.296;2023-07-31T04:10:53;18.00;91.00
68235;DHT22;55052;52.056;5.296;2023-07-31T04:13:21;17.90;91.00
68235;DHT22;55052;52.056;5.296;2023-07-31T04:15:49;17.90;91.00
68235;DHT22;55052;52.056;5.296;2023-07-31T04:18:17;17.90;90.90
68235;DHT22;55052;52.056;5.296;2023-07-31T04:20:44;17.90;90.90
68235;DHT22;55052;52.056;5.296;2023-07-31T04:23:11;17.90;90.90
68235;DHT22;55052;52.056;5.296;2023-07-31T04:25:38;17.90;90.90
68235;DHT22;55052;52.056;5.296;2023-07-31T04:28:05;17.90;90.90
68235;DHT22;55052;52.056;5.296;2023-07-31T04:30:32;17.90;90.90
68235;DHT22;55052;52.056;5.296;2023-07-31T04:32:59;17.90;90.80
68235;DHT22;55052;52.056;5.296;2023-07-31T04:35:26;17.90;90.80
68235;DHT22;55052;52.056;5.296;2023-07-31T04:37:53;17.90;90.80
68235;DHT22;55052;52.056;5.296;2023-07-31T04:40:20;17.90;90.80
68235;DHT22;55052;52.056;5.296;2023-07-31T04:42:47;17.90;90.90
68235;DHT22;55052;52.056;5.296;2023-07-31T04:45:14;17.90;90.90
68235;DHT22;55052;52.056;5.296;2023-07-31T04:47:41;17.90;90.90
68235;DHT22;55052;52.056;5.296;2023-07-31T04:50:08;17.90;90.90
68235;DHT22;55052;52.056;5.296;2023-07-31T04:52:35;17.90;90.90
68235;DHT22;55052;52.056;5.296;2023-07-31T04:55:01;17.90;90.90
68235;DHT22;55052;52.056;5.296;2023-07-31T04:57:29;17.90;91.00
68235;DHT22;55052;52.056;5.296;2023-07-31T04:59:56;17.90;91.40
68235;DHT22;55052;52.056;5.296;2023-07-31T05:02:22;17.90;91.10
68235;DHT22;55052;52.056;5.296;2023-07-31T05:04:51;17.90;91.10
68235;DHT22;55052;52.056;5.296;2023-07-31T05:07:18;17.90;91.10
68235;DHT22;55052;52.056;5.296;2023-07-31T05:09:44;17.80;91.10
68235;DHT22;55052;52.056;5.296;2023-07-31T05:12:11;17.80;91.00
68235;DHT22;55052;52.056;5.296;2023-07-31T05:14:38;17.80;91.10
68235;DHT22;55052;52.056;5.296;2023-07-31T05:17:05;17.80;91.20
68235;DHT22;55052;52.056;5.296;2023-07-31T05:19:32;17.80;91.20
68235;DHT22;55052;52.056;5.296;2023-07-31T05:21:59;17.80;91.20
68235;DHT22;55052;52.056;5.296;2023-07-31T05:24:25;17.80;91.30
68235;DHT22;55052;52.056;5.296;2023-07-31T05:26:52;17.80;91.30
68235;DHT22;55052;52.056;5.296;2023-07-31T05:29:19;17.80;91.40
68235;DHT22;55052;52.056;5.296;2023-07-31T05:31:46;17.70;91.40
68235;DHT22;55052;52.056;5.296;2023-07-31T05:34:13;17.70;91.40
68235;DHT22;55052;52.056;5.296;2023-07-31T05:36:40;17.70;91.50
68235;DHT22;55052;52.056;5.296;2023-07-31T05:39:07;17.70;91.60
68235;DHT22;55052;52.056;5.296;2023-07-31T05:41:35;17.70;91.60
68235;DHT22;55052;52.056;5.296;2023-07-31T05:44:02;17.70;91.70
68235;DHT22;55052;52.056;5.296;2023-07-31T05:46:29;17.60;91.70
68235;DHT22;55052;52.056;5.296;2023-07-31T05:48:58;17.60;91.80
68235;DHT22;55052;52.056;5.296;2023-07-31T05:51:27;17.60;91.80
68235;DHT22;55052;52.056;5.296;2023-07-31T05:53:54;17.60;91.90
68235;DHT22;55052;52.056;5.296;2023-07-31T05:56:21;17.70;92.00
68235;DHT22;55052;52.056;5.296;2023-07-31T05:58:48;17.60;91.90
68235;DHT22;55052;52.056;5.296;2023-07-31T06:01:16;17.60;92.00
68235;DHT22;55052;52.056;5.296;2023-07-31T06:03:43;17.60;92.10
68235;DHT22;55052;52.056;5.296;2023-07-31T06:06:11;17.60;92.10
68235;DHT22;55052;52.056;5.296;2023-07-31T06:08:38;17.60;92.10
68235;DHT22;55052;52.056;5.296;2023-07-31T06:11:05;17.60;92.10
68235;DHT22;55052;52.056;5.296;2023-07-31T06:13:32;17.60;92.20
68235;DHT22;55052;52.056;5.296;2023-07-31T06:15:59;17.60;92.20
68235;DHT22;55052;52.056;5.296;2023-07-31T06:18:26;17.60;92.30
68235;DHT22;55052;52.056;5.296;2023-07-31T06:20:53;17.60;92.30
68235;DHT22;55052;52.056;5.296;2023-07-31T06:23:20;17.60;92.30
68235;DHT22;55052;52.056;5.296;2023-07-31T06:25:47;17.60;92.40
68235;DHT22;55052;52.056;5.296;2023-07-31T06:28:14;17.60;92.50
68235;DHT22;55052;52.056;5.296;2023-07-31T06:30:41;17.60;92.50
68235;DHT22;55052;52.056;5.296;2023-07-31T06:33:08;17.60;92.50
68235;DHT22;55052;52.056;5.296;2023-07-31T06:35:36;17.60;92.60
68235;DHT22;55052;52.056;5.296;2023-07-31T06:38:02;17.60;92.60
68235;DHT22;55052;52.056;5.296;2023-07-31T06:40:30;17.70;92.70
68235;DHT22;55052;52.056;5.296;2023-07-31T06:42:57;17.70;92.70
68235;DHT22;55052;52.056;5.296;2023-07-31T06:45:23;17.70;92.70
68235;DHT22;55052;52.056;5.296;2023-07-31T06:47:50;17.70;92.80
68235;DHT22;55052;52.056;5.296;2023-07-31T06:50:17;17.70;92.80
68235;DHT22;55052;52.056;5.296;2023-07-31T06:52:44;17.70;92.90
68235;DHT22;55052;52.056;5.296;2023-07-31T06:55:21;17.70;93.00
68235;DHT22;55052;52.056;5.296;2023-07-31T06:57:50;17.80;93.10
68235;DHT22;55052;52.056;5.296;2023-07-31T07:00:18;17.80;93.10
68235;DHT22;55052;52.056;5.296;2023-07-31T07:02:46;17.80;93.10
68235;DHT22;55052;52.056;5.296;2023-07-31T07:05:15;17.80;93.20
68235;DHT22;55052;52.056;5.296;2023-07-31T07:07:42;17.90;93.20
68235;DHT22;55052;52.056;5.296;2023-07-31T07:10:10;17.90;93.30
68235;DHT22;55052;52.056;5.296;2023-07-31T07:12:37;17.90;93.30
68235;DHT22;55052;52.056;5.296;2023-07-31T07:15:04;17.90;93.30
68235;DHT22;55052;52.056;5.296;2023-07-31T07:17:31;18.00;93.30
68235;DHT22;55052;52.056;5.296;2023-07-31T07:19:59;18.00;93.40
68235;DHT22;55052;52.056;5.296;2023-07-31T07:22:26;18.00;93.40
68235;DHT22;55052;52.056;5.296;2023-07-31T07:24:54;18.00;93.40
68235;DHT22;55052;52.056;5.296;2023-07-31T07:27:21;18.00;93.50
68235;DHT22;55052;52.056;5.296;2023-07-31T07:29:50;18.10;93.50
68235;DHT22;55052;52.056;5.296;2023-07-31T07:32:19;18.10;93.50
68235;DHT22;55052;52.056;5.296;2023-07-31T07:34:47;18.00;93.50
68235;DHT22;55052;52.056;5.296;2023-07-31T07:37:14;18.10;93.60
68235;DHT22;55052;52.056;5.296;2023-07-31T07:39:41;18.10;93.50
68235;DHT22;55052;52.056;5.296;2023-07-31T07:42:08;18.10;93.60
68235;DHT22;55052;52.056;5.296;2023-07-31T07:44:34;18.10;93.50
68235;DHT22;55052;52.056;5.296;2023-07-31T07:47:01;18.20;93.60
68235;DHT22;55052;52.056;5.296;2023-07-31T07:49:28;18.20;93.70
68235;DHT22;55052;52.056;5.296;2023-07-31T07:51:55;18.20;93.70
68235;DHT22;55052;52.056;5.296;2023-07-31T07:54:22;18.20;93.70
68235;DHT22;55052;52.056;5.296;2023-07-31T07:56:49;18.20;93.70
68235;DHT22;55052;52.056;5.296;2023-07-31T07:59:16;18.30;93.70
68235;DHT22;55052;52.056;5.296;2023-07-31T08:01:43;18.30;93.70
68235;DHT22;55052;52.056;5.296;2023-07-31T08:04:10;18.30;93.80
68235;DHT22;55052;52.056;5.296;2023-07-31T08:06:37;18.30;93.80
68235;DHT22;55052;52.056;5.296;2023-07-31T08:09:04;18.40;93.80
68235;DHT22;55052;52.056;5.296;2023-07-31T08:11:33;18.40;93.80
68235;DHT22;55052;52.056;5.296;2023-07-31T08:14:00;18.40;93.80
68235;DHT22;55052;52.056;5.296;2023-07-31T08:16:27;18.40;93.80
68235;DHT22;55052;52.056;5.296;2023-07-31T08:18:54;18.40;93.90
68235;DHT22;55052;52.056;5.296;2023-07-31T08:21:22;18.50;93.90
68235;DHT22;55052;52.056;5.296;2023-07-31T08:23:49;18.50;93.90
68235;DHT22;55052;52.056;5.296;2023-07-31T08:26:17;18.60;94.00
68235;DHT22;55052;52.056;5.296;2023-07-31T08:28:44;18.60;93.90
68235;DHT22;55052;52.056;5.296;2023-07-31T08:31:11;18.60;94.30
68235;DHT22;55052;52.056;5.296;2023-07-31T08:33:38;18.70;94.00
68235;DHT22;55052;52.056;5.296;2023-07-31T08:36:06;18.70;93.90
68235;DHT22;55052;52.056;5.296;2023-07-31T08:38:33;18.70;93.90
68235;DHT22;55052;52.056;5.296;2023-07-31T08:41:02;18.80;93.90
68235;DHT22;55052;52.056;5.296;2023-07-31T08:43:30;18.80;93.80
68235;DHT22;55052;52.056;5.296;2023-07-31T08:45:57;18.80;93.80
68235;DHT22;55052;52.056;5.296;2023-07-31T08:48:23;18.80;93.80
68235;DHT22;55052;52.056;5.296;2023-07-31T08:50:54;18.80;93.90
68235;DHT22;55052;52.056;5.296;2023-07-31T08:53:21;18.90;94.30
68235;DHT22;55052;52.056;5.296;2023-07-31T08:55:49;18.90;93.80
68235;DHT22;55052;52.056;5.296;2023-07-31T08:58:17;18.90;93.80
68235;DHT22;55052;52.056;5.296;2023-07-31T09:00:46;18.90;94.20
68235;DHT22;55052;52.056;5.296;2023-07-31T09:03:15;18.90;93.70
68235;DHT22;55052;52.056;5.296;2023-07-31T09:05:45;18.90;93.70
68235;DHT22;55052;52.056;5.296;2023-07-31T09:08:20;18.90;93.70
68235;DHT22;55052;52.056;5.296;2023-07-31T09:10:48;19.00;93.70
68235;DHT22;55052;52.056;5.296;2023-07-31T09:13:17;19.00;93.60
68235;DHT22;55052;52.056;5.296;2023-07-31T09:15:45;19.00;93.60
68235;DHT22;55052;52.056;5.296;2023-07-31T09:18:12;19.00;93.60
68235;DHT22;55052;52.056;5.296;2023-07-31T09:20:41;19.00;93.60
68235;DHT22;55052;52.056;5.296;2023-07-31T09:23:14;19.00;94.00
68235;DHT22;55052;52.056;5.296;2023-07-31T09:25:44;19.00;93.60
68235;DHT22;55052;52.056;5.296;2023-07-31T09:28:11;19.00;93.60
68235;DHT22;55052;52.056;5.296;2023-07-31T09:30:46;19.00;93.60
68235;DHT22;55052;52.056;5.296;2023-07-31T09:33:14;19.00;93.70
68235;DHT22;55052;52.056;5.296;2023-07-31T09:35:41;19.10;93.80
68235;DHT22;55052;52.056;5.296;2023-07-31T09:38:13;19.10;93.80
68235;DHT22;55052;52.056;5.296;2023-07-31T09:40:42;19.10;93.80
68235;DHT22;55052;52.056;5.296;2023-07-31T09:43:27;19.20;93.80
68235;DHT22;55052;52.056;5.296;2023-07-31T09:45:56;19.20;93.80
68235;DHT22;55052;52.056;5.296;2023-07-31T09:48:24;19.20;93.80
68235;DHT22;55052;52.056;5.296;2023-07-31T09:50:54;19.30;93.80
68235;DHT22;55052;52.056;5.296;2023-07-31T09:53:28;19.30;93.80
68235;DHT22;55052;52.056;5.296;2023-07-31T09:55:58;19.30;93.80
68235;DHT22;55052;52.056;5.296;2023-07-31T09:58:28;19.30;93.70
68235;DHT22;55052;52.056;5.296;2023-07-31T10:00:57;19.30;93.70
68235;DHT22;55052;52.056;5.296;2023-07-31T10:03:26;19.40;93.70
68235;DHT22;55052;52.056;5.296;2023-07-31T10:05:55;19.40;93.70
68235;DHT22;55052;52.056;5.296;2023-07-31T10:08:28;19.40;93.70
68235;DHT22;55052;52.056;5.296;2023-07-31T10:10:59;19.40;93.70
68235;DHT22;55052;52.056;5.296;2023-07-31T10:13:28;19.40;93.70
68235;DHT22;55052;52.056;5.296;2023-07-31T10:15:58;19.40;93.60
68235;DHT22;55052;52.056;5.296;2023-07-31T10:18:26;19.50;93.60
68235;DHT22;55052;52.056;5.296;2023-07-31T10:20:54;19.50;93.60
68235;DHT22;55052;52.056;5.296;2023-07-31T10:23:22;19.50;93.50
68235;DHT22;55052;52.056;5.296;2023-07-31T10:25:52;19.50;93.40
68235;DHT22;55052;52.056;5.296;2023-07-31T10:28:20;19.50;93.40
68235;DHT22;55052;52.056;5.296;2023-07-31T10:30:48;19.50;93.40
68235;DHT22;55052;52.056;5.296;2023-07-31T10:33:16;19.50;93.40
68235;DHT22;55052;52.056;5.296;2023-07-31T10:35:44;19.50;93.30
68235;DHT22;55052;52.056;5.296;2023-07-31T10:38:11;19.50;93.30
68235;DHT22;55052;52.056;5.296;2023-07-31T10:40:39;19.60;93.30
68235;DHT22;55052;52.056;5.296;2023-07-31T10:43:06;19.60;93.30
68235;DHT22;55052;52.056;5.296;2023-07-31T10:45:39;19.60;93.30
68235;DHT22;55052;52.056;5.296;2023-07-31T10:48:15;19.60;93.30
68235;DHT22;55052;52.056;5.296;2023-07-31T10:53:32;19.70;93.30
68235;DHT22;55052;52.056;5.296;2023-07-31T10:58:32;19.70;93.30
68235;DHT22;55052;52.056;5.296;2023-07-31T11:01:01;19.70;93.30
68235;DHT22;55052;52.056;5.296;2023-07-31T11:06:09;19.80;93.40
68235;DHT22;55052;52.056;5.296;2023-07-31T11:08:42;19.80;93.40
68235;DHT22;55052;52.056;5.296;2023-07-31T11:11:11;19.80;93.40
68235;DHT22;55052;52.056;5.296;2023-07-31T11:13:47;19.80;93.40
68235;DHT22;55052;52.056;5.296;2023-07-31T11:16:20;19.80;93.40
68235;DHT22;55052;52.056;5.296;2023-07-31T11:18:48;19.80;93.30
68235;DHT22;55052;52.056;5.296;2023-07-31T11:21:18;19.80;93.40
68235;DHT22;55052;52.056;5.296;2023-07-31T11:23:50;19.80;93.30
68235;DHT22;55052;52.056;5.296;2023-07-31T11:26:18;19.80;93.30
68235;DHT22;55052;52.056;5.296;2023-07-31T11:28:49;19.80;93.30
68235;DHT22;55052;52.056;5.296;2023-07-31T11:31:17;19.80;93.30
68235;DHT22;55052;52.056;5.296;2023-07-31T11:33:45;19.70;93.20
68235;DHT22;55052;52.056;5.296;2023-07-31T11:36:16;19.70;93.30
68235;DHT22;55052;52.056;5.296;2023-07-31T11:38:43;19.70;93.30
68235;DHT22;55052;52.056;5.296;2023-07-31T11:41:10;19.70;93.30
68235;DHT22;55052;52.056;5.296;2023-07-31T11:43:40;19.70;93.20
68235;DHT22;55052;52.056;5.296;2023-07-31T11:46:06;19.70;93.20
68235;DHT22;55052;52.056;5.296;2023-07-31T11:48:35;19.70;93.30
68235;DHT22;55052;52.056;5.296;2023-07-31T11:51:04;19.60;93.30
68235;DHT22;55052;52.056;5.296;2023-07-31T11:53:38;19.60;93.30
68235;DHT22;55052;52.056;5.296;2023-07-31T11:56:06;19.60;93.40
68235;DHT22;55052;52.056;5.296;2023-07-31T11:58:35;19.70;93.50
68235;DHT22;55052;52.056;5.296;2023-07-31T12:01:03;19.70;93.50
68235;DHT22;55052;52.056;5.296;2023-07-31T12:03:31;19.70;93.50
68235;DHT22;55052;52.056;5.296;2023-07-31T12:05:59;19.70;93.60
68235;DHT22;55052;52.056;5.296;2023-07-31T12:08:26;19.80;93.60
68235;DHT22;55052;52.056;5.296;2023-07-31T12:10:54;19.80;93.70
68235;DHT22;55052;52.056;5.296;2023-07-31T12:13:31;19.80;93.60
68235;DHT22;55052;52.056;5.296;2023-07-31T12:16:00;19.90;93.50
68235;DHT22;55052;52.056;5.296;2023-07-31T12:18:29;19.80;93.50
68235;DHT22;55052;52.056;5.296;2023-07-31T12:20:58;19.80;93.50
68235;DHT22;55052;52.056;5.296;2023-07-31T12:23:27;19.90;93.50
68235;DHT22;55052;52.056;5.296;2023-07-31T12:28:34;19.80;93.50
68235;DHT22;55052;52.056;5.296;2023-07-31T12:31:01;19.80;93.40
68235;DHT22;55052;52.056;5.296;2023-07-31T12:33:32;19.80;93.40
68235;DHT22;55052;52.056;5.296;2023-07-31T12:36:01;19.80;93.50
68235;DHT22;55052;52.056;5.296;2023-07-31T12:38:30;19.80;93.40
68235;DHT22;55052;52.056;5.296;2023-07-31T12:40:57;19.80;93.50
68235;DHT22;55052;52.056;5.296;2023-07-31T12:43:23;19.80;93.50
68235;DHT22;55052;52.056;5.296;2023-07-31T12:45:50;19.80;93.50
68235;DHT22;55052;52.056;5.296;2023-07-31T12:48:17;19.90;93.60
68235;DHT22;55052;52.056;5.296;2023-07-31T12:50:44;19.90;93.50
68235;DHT22;55052;52.056;5.296;2023-07-31T12:53:11;19.90;93.50
68235;DHT22;55052;52.056;5.296;2023-07-31T12:55:38;19.90;93.50
68235;DHT22;55052;52.056;5.296;2023-07-31T12:58:05;19.90;93.60
68235;DHT22;55052;52.056;5.296;2023-07-31T13:00:31;19.90;93.60
68235;DHT22;55052;52.056;5.296;2023-07-31T13:02:59;20.00;93.60
68235;DHT22;55052;52.056;5.296;2023-07-31T13:05:27;20.00;93.60
68235;DHT22;55052;52.056;5.296;2023-07-31T13:07:54;20.00;93.50
68235;DHT22;55052;52.056;5.296;2023-07-31T13:10:22;20.00;93.90
68235;DHT22;55052;52.056;5.296;2023-07-31T13:12:49;20.10;93.60
68235;DHT22;55052;52.056;5.296;2023-07-31T13:15:16;20.10;93.60
68235;DHT22;55052;52.056;5.296;2023-07-31T13:17:43;20.10;93.60
68235;DHT22;55052;52.056;5.296;2023-07-31T13:20:10;20.10;93.60
68235;DHT22;55052;52.056;5.296;2023-07-31T13:22:37;20.20;93.60
68235;DHT22;55052;52.056;5.296;2023-07-31T13:25:04;20.20;93.50
68235;DHT22;55052;52.056;5.296;2023-07-31T13:27:31;20.20;93.60
68235;DHT22;55052;52.056;5.296;2023-07-31T13:29:58;20.20;93.50
68235;DHT22;55052;52.056;5.296;2023-07-31T13:32:25;20.20;93.40
68235;DHT22;55052;52.056;5.296;2023-07-31T13:34:52;20.20;93.40
68235;DHT22;55052;52.056;5.296;2023-07-31T13:37:19;20.20;93.40
68235;DHT22;55052;52.056;5.296;2023-07-31T13:39:46;20.20;93.40
68235;DHT22;55052;52.056;5.296;2023-07-31T13:42:13;20.20;93.40
68235;DHT22;55052;52.056;5.296;2023-07-31T13:44:40;20.20;93.40
68235;DHT22;55052;52.056;5.296;2023-07-31T13:47:08;20.20;93.40
68235;DHT22;55052;52.056;5.296;2023-07-31T13:49:35;20.20;93.50
68235;DHT22;55052;52.056;5.296;2023-07-31T13:52:03;20.20;93.60
68235;DHT22;55052;52.056;5.296;2023-07-31T13:54:30;20.20;93.60
68235;DHT22;55052;52.056;5.296;2023-07-31T13:56:57;20.20;94.00
68235;DHT22;55052;52.056;5.296;2023-07-31T13:59:24;20.30;93.60
68235;DHT22;55052;52.056;5.296;2023-07-31T14:01:50;20.30;93.60
68235;DHT22;55052;52.056;5.296;2023-07-31T14:04:17;20.20;93.60
68235;DHT22;55052;52.056;5.296;2023-07-31T14:06:44;20.30;93.90
68235;DHT22;55052;52.056;5.296;2023-07-31T14:09:11;20.20;93.60
68235;DHT22;55052;52.056;5.296;2023-07-31T14:11:38;20.20;93.60
68235;DHT22;55052;52.056;5.296;2023-07-31T14:14:09;20.20;93.60
68235;DHT22;55052;52.056;5.296;2023-07-31T14:16:36;20.20;93.70
68235;DHT22;55052;52.056;5.296;2023-07-31T14:19:04;20.20;93.70
68235;DHT22;55052;52.056;5.296;2023-07-31T14:21:31;20.20;93.70
68235;DHT22;55052;52.056;5.296;2023-07-31T14:23:57;20.20;94.00
68235;DHT22;55052;52.056;5.296;2023-07-31T14:26:24;20.20;93.70
68235;DHT22;55052;52.056;5.296;2023-07-31T14:28:51;20.20;93.70
68235;DHT22;55052;52.056;5.296;2023-07-31T14:31:18;20.20;93.60
68235;DHT22;55052;52.056;5.296;2023-07-31T14:33:45;20.20;93.70
68235;DHT22;55052;52.056;5.296;2023-07-31T14:36:12;20.10;93.60
68235;DHT22;55052;52.056;5.296;2023-07-31T14:38:38;20.10;93.60
68235;DHT22;55052;52.056;5.296;2023-07-31T14:41:05;20.10;93.60
68235;DHT22;55052;52.056;5.296;2023-07-31T14:43:32;20.10;93.70
68235;DHT22;55052;52.056;5.296;2023-07-31T14:45:59;20.10;93.60
68235;DHT22;55052;52.056;5.296;2023-07-31T14:48:27;20.00;93.60
68235;DHT22;55052;52.056;5.296;2023-07-31T14:50:54;20.00;93.60
68235;DHT22;55052;52.056;5.296;2023-07-31T14:53:21;20.00;93.60
68235;DHT22;55052;52.056;5.296;2023-07-31T14:55:47;20.00;93.60
68235;DHT22;55052;52.056;5.296;2023-07-31T14:58:14;19.90;93.60
68235;DHT22;55052;52.056;5.296;2023-07-31T15:00:44;19.90;93.60
68235;DHT22;55052;52.056;5.296;2023-07-31T15:03:11;19.90;94.00
68235;DHT22;55052;52.056;5.296;2023-07-31T15:05:38;19.90;93.70
68235;DHT22;55052;52.056;5.296;2023-07-31T15:08:04;19.90;93.80
68235;DHT22;55052;52.056;5.296;2023-07-31T15:10:31;19.90;93.90
68235;DHT22;55052;52.056;5.296;2023-07-31T15:12:58;19.90;93.90
68235;DHT22;55052;52.056;5.296;2023-07-31T15:15:25;19.90;93.90
68235;DHT22;55052;52.056;5.296;2023-07-31T15:17:52;19.90;93.90
68235;DHT22;55052;52.056;5.296;2023-07-31T15:20:19;19.80;93.90
68235;DHT22;55052;52.056;5.296;2023-07-31T15:22:45;19.80;93.90
68235;DHT22;55052;52.056;5.296;2023-07-31T15:25:13;19.80;94.00
68235;DHT22;55052;52.056;5.296;2023-07-31T15:27:40;19.80;94.10
68235;DHT22;55052;52.056;5.296;2023-07-31T15:30:07;19.80;94.00
68235;DHT22;55052;52.056;5.296;2023-07-31T15:32:34;19.80;94.00
68235;DHT22;55052;52.056;5.296;2023-07-31T15:35:03;19.80;94.00
68235;DHT22;55052;52.056;5.296;2023-07-31T15:37:30;19.80;94.00
68235;DHT22;55052;52.056;5.296;2023-07-31T15:39:57;19.80;94.00
68235;DHT22;55052;52.056;5.296;2023-07-31T15:42:24;19.80;94.10
68235;DHT22;55052;52.056;5.296;2023-07-31T15:44:50;19.80;94.10
68235;DHT22;55052;52.056;5.296;2023-07-31T15:47:17;19.80;94.00
68235;DHT22;55052;52.056;5.296;2023-07-31T15:49:44;19.80;94.00